sensor_id;sensor_type;location;lat;lon;timestamp;P1;durP1;ratioP1;P2;durP2;ratioP2
72674;SDS011;60752;53.962;9.614;2023-03-23T00:18:25;20.70;;;8.00;;
72674;SDS011;60752;53.962;9.614;2023-03-23T00:48:27;16.53;;;7.37;;
72674;SDS011;60752;53.962;9.614;2023-03-23T01:18:30;14.63;;;6.83;;
72674;SDS011;60752;53.962;9.614;2023-03-23T01:48:32;8.43;;;3.80;;
72674;SDS011;60752;53.962;9.614;2023-03-23T02:18:39;5.30;;;1.50;;
72674;SDS011;60752;53.962;9.614;2023-03-23T02:48:49;4.07;;;1.20;;
72674;SDS011;60752;53.962;9.614;2023-03-23T03:18:54;4.30;;;1.30;;
72674;SDS011;60752;53.962;9.614;2023-03-23T03:49:00;5.23;;;2.00;;
72674;SDS011;60752;53.962;9.614;2023-03-23T04:19:03;13.10;;;7.73;;
72674;SDS011;60752;53.962;9.614;2023-03-23T04:49:05;17.23;;;7.40;;
72674;SDS011;60752;53.962;9.614;2023-03-23T05:19:07;13.80;;;8.13;;
72674;SDS011;60752;53.962;9.614;2023-03-23T05:49:09;13.90;;;7.77;;
72674;SDS011;60752;53.962;9.614;2023-03-23T06:19:10;14.20;;;6.70;;
72674;SDS011;60752;53.962;9.614;2023-03-23T06:49:12;13.70;;;6.33;;
72674;SDS011;60752;53.962;9.614;2023-03-23T07:19:14;6.22;;;2.63;;
72674;SDS011;60752;53.962;9.614;2023-03-23T07:49:16;4.27;;;1.20;;
72674;SDS011;60752;53.962;9.614;2023-03-23T08:19:18;10.27;;;1.43;;
72674;SDS011;60752;53.962;9.614;2023-03-23T08:49:20;5.07;;;1.50;;
72674;SDS011;60752;53.962;9.614;2023-03-23T09:19:22;7.43;;;1.77;;
72674;SDS011;60752;53.962;9.614;2023-03-23T09:49:25;8.20;;;1.80;;
72674;SDS011;60752;53.962;9.614;2023-03-23T10:19:32;5.13;;;1.67;;
72674;SDS011;60752;53.962;9.614;2023-03-23T10:49:39;8.00;;;1.70;;
72674;SDS011;60752;53.962;9.614;2023-03-23T11:19:43;9.73;;;2.03;;
72674;SDS011;60752;53.962;9.614;2023-03-23T11:49:47;9.97;;;1.83;;
72674;SDS011;60752;53.962;9.614;2023-03-23T12:20:00;10.38;;;1.67;;
72674;SDS011;60752;53.962;9.614;2023-03-23T12:50:12;11.20;;;2.07;;
72674;SDS011;60752;53.962;9.614;2023-03-23T13:20:23;13.53;;;2.27;;
72674;SDS011;60752;53.962;9.614;2023-03-23T13:50:44;14.03;;;1.90;;
72674;SDS011;60752;53.962;9.614;2023-03-23T14:20:52;17.77;;;3.23;;
72674;SDS011;60752;53.962;9.614;2023-03-23T14:50:55;13.77;;;2.35;;
72674;SDS011;60752;53.962;9.614;2023-03-23T15:20:58;13.33;;;2.23;;
72674;SDS011;60752;53.962;9.614;2023-03-23T15:51:09;14.80;;;3.03;;
72674;SDS011;60752;53.962;9.614;2023-03-23T16:21:11;14.77;;;2.20;;
72674;SDS011;60752;53.962;9.614;2023-03-23T16:51:13;9.20;;;2.20;;
72674;SDS011;60752;53.962;9.614;2023-03-23T17:21:15;14.35;;;2.38;;
72674;SDS011;60752;53.962;9.614;2023-03-23T17:51:17;11.13;;;2.40;;
72674;SDS011;60752;53.962;9.614;2023-03-23T18:21:19;12.23;;;3.07;;
72674;SDS011;60752;53.962;9.614;2023-03-23T18:51:20;6.60;;;2.90;;
72674;SDS011;60752;53.962;9.614;2023-03-23T19:21:23;6.70;;;2.07;;
72674;SDS011;60752;53.962;9.614;2023-03-23T19:51:25;6.70;;;1.58;;
72674;SDS011;60752;53.962;9.614;2023-03-23T20:21:27;6.03;;;1.77;;
72674;SDS011;60752;53.962;9.614;2023-03-23T20:51:29;7.53;;;2.00;;
72674;SDS011;60752;53.962;9.614;2023-03-23T21:21:30;8.83;;;2.40;;
72674;SDS011;60752;53.962;9.614;2023-03-23T21:51:32;6.33;;;2.30;;
72674;SDS011;60752;53.962;9.614;2023-03-23T22:21:34;9.20;;;3.83;;
72674;SDS011;60752;53.962;9.614;2023-03-23T22:51:36;8.53;;;3.57;;
72674;SDS011;60752;53.962;9.614;2023-03-23T23:21:38;10.20;;;5.00;;
72674;SDS011;60752;53.962;9.614;2023-03-23T23:51:40;13.63;;;6.40;;
